Wetterstation Vordersexau
Wetterdaten: August 2011
Datum Temp. A. Feuchte A. Luftdruck Regen Wind Richtung Taupunkt Windchill Windben
01.08.2011 20,2 C 66 % 1013,3 hPa 0,0 l/m 2,8 km/h NO 12,9 C 20,0 C 1,6 km/h
02.08.2011 23,5 C 60 % 1013,5 hPa 0,0 l/m 1,0 km/h NO 13,8 C 23,5 C 0,5 km/h
03.08.2011 21,4 C 68 % 1014,4 hPa 0,0 l/m 4,2 km/h W-SW 14,9 C 21,1 C 2,3 km/h
04.08.2011 24,2 C 67 % 1014,8 hPa 0,0 l/m 1,3 km/h O-NO 16,9 C 24,2 C 0,7 km/h
05.08.2011 21,7 C 75 % 1012,8 hPa 5,0 l/m 2,0 km/h NO 16,8 C 21,5 C 1,1 km/h
06.08.2011 22,2 C 72 % 1006,5 hPa 0,4 l/m 1,8 km/h O-SO 16,7 C 22,0 C 1,0 km/h
07.08.2011 18,2 C 80 % 1007,0 hPa 8,5 l/m 4,6 km/h S 14,6 C 17,6 C 2,6 km/h
08.08.2011 15,9 C 75 % 1010,5 hPa 1,8 l/m 10,5 km/h W-SW 11,3 C 14,3 C 5,8 km/h
09.08.2011 15,4 C 77 % 1019,1 hPa 3,9 l/m 9,7 km/h SW 11,2 C 13,3 C 5,4 km/h
10.08.2011 17,8 C 62 % 1023,7 hPa 0,0 l/m 0,6 km/h O-NO 9,4 C 17,8 C 0,4 km/h
11.08.2011 19,0 C 60 % 1016,7 hPa 0,0 l/m 1,2 km/h SO 9,7 C 18,9 C 0,7 km/h
12.08.2011 18,8 C 67 % 1012,4 hPa 0,0 l/m 10,4 km/h SO 12,0 C 17,6 C 5,8 km/h
13.08.2011 21,6 C 70 % 1010,5 hPa 0,0 l/m 4,2 km/h W-SW 15,5 C 21,2 C 2,3 km/h
14.08.2011 20,5 C 74 % 1008,0 hPa 0,0 l/m 6,5 km/h SO 15,3 C 20,0 C 3,6 km/h
15.08.2011 20,8 C 74 % 1013,3 hPa 0,0 l/m 1,7 km/h N-NO 15,8 C 20,7 C 0,9 km/h
16.08.2011 21,4 C 68 % 1016,8 hPa 0,0 l/m 0,8 km/h NO 14,4 C 21,4 C 0,4 km/h
17.08.2011 22,6 C 68 % 1014,3 hPa 0,0 l/m 0,6 km/h W-SW 15,7 C 22,6 C 0,3 km/h
18.08.2011 25,6 C 65 % 1012,4 hPa 0,0 l/m 1,6 km/h SO 17,6 C 25,6 C 0,9 km/h
19.08.2011 24,9 C 68 % 1016,0 hPa 0,0 l/m 9,3 km/h W 18,3 C 24,3 C 5,2 km/h
20.08.2011 24,5 C 69 % 1018,7 hPa 0,0 l/m 1,6 km/h W 17,7 C 24,5 C 0,9 km/h
21.08.2011 25,9 C 67 % 1016,3 hPa 0,0 l/m 0,4 km/h SO 18,6 C 25,9 C 0,2 km/h
22.08.2011 28,4 C 64 % 1014,4 hPa 0,0 l/m 1,1 km/h O-NO 19,6 C 28,4 C 0,6 km/h
23.08.2011 27,6 C 60 % 1012,9 hPa 0,0 l/m 2,3 km/h NO 17,8 C 27,6 C 1,3 km/h
24.08.2011 24,5 C 66 % 1014,2 hPa 0,0 l/m 0,5 km/h SO 17,3 C 24,5 C 0,3 km/h
25.08.2011 23,3 C 70 % 1012,7 hPa 0,0 l/m 0,5 km/h W-NW 16,9 C 23,3 C 0,3 km/h
26.08.2011 22,3 C 71 % 1007,2 hPa 0,0 l/m 3,8 km/h W-SW 16,3 C 21,8 C 2,1 km/h
27.08.2011 14,9 C 75 % 1015,6 hPa 0,0 l/m 14,3 km/h W-SW 10,5 C 11,6 C 7,9 km/h
28.08.2011 18,7 C 62 % 1018,2 hPa 0,0 l/m 4,3 km/h NO 10,2 C 18,4 C 2,4 km/h
29.08.2011 17,8 C 64 % 1016,2 hPa 0,0 l/m 1,9 km/h N-NO 10,0 C 17,7 C 1,0 km/h
30.08.2011 17,9 C 62 % 1014,4 hPa 0,0 l/m 1,1 km/h N-NO 9,0 C 17,8 C 0,6 km/h
31.08.2011 18,1 C 64 % 1011,9 hPa 0,0 l/m 1,0 km/h W-NW 10,2 C 18,0 C 0,5 km/h
Min-Datum 11.08.11 22.08.11 06.08.11 5 Tage 01.08.11 - 11.08.11 09.08.11 01.08.11
Min-Zeit 06:30 16:30 23:30 - 00:30 - 06:30 07:30 00:30
Minimum 7,6 C 23 % 1002,3 hPa - 0,0 km/h - 5,2 C 5,1 C 0,0 km/h
Max-Datum 22.08.11 01.08.11 10.08.11 07.08.11 08.08.11 - 22.08.11 22.08.11 08.08.11
Max-Zeit 16:30 04:30 09:30 05:30 10:30 - 13:30 16:30 10:30
Maximum 44,4 C 86 % 1025,6 hPa 8,5 l/m 63,5 km/h
W-SW
- 23,2 C 44,4 C 35,3 km/h
W-SW
Durchschnitt 21,3 C 68 % 1013,8 hPa #19,6 l/m 3,5 km/h SO 14,4 C 20,9 C 1,9 km/h

Durchschnitt Minimum Temp.13,6 C
Durchschnitt Maximum Temp.32,3 C
www.sexauwetter.de